Time;durP1;ratioP1;P1;durP2;ratioP2;P2;SDS_P1;SDS_P2;PMS_P1;PMS_P2;Temp;Humidity;BMP_temperature;BMP_pressure;BME280_temperature;BME280_humidity;BME280_pressure;Samples;Min_cycle;Max_cycle;Signal;HPM_P1;HPM_P2
2023/01/21 17:27:19;;;;;;;5.60;0.70;;;;;;;;;;5118114;27;20206;-66
2023/01/21 17:29:45;;;;;;;3.65;1.15;;;;;;;;;;5119046;27;20070;-64
2023/01/21 17:32:32;;;;;;;5.07;0.95;;;;;;;;;;5113537;27;20768;-61
2023/01/21 17:35:11;;;;;;;1.92;0.60;;;;;;;;;;5115137;27;20054;-61
2023/01/21 17:38:04;;;;;;;2.72;0.63;;;;;;;;;;5115789;27;20040;-62
2023/01/21 17:40:57;;;;;;;1.45;0.65;;;;;;;;;;5105990;27;20035;-64
2023/01/21 17:43:24;;;;;;;1.33;0.60;;;;;;;;;;5117498;27;20093;-65
2023/01/21 17:45:52;;;;;;;2.40;0.50;;;;;;;;;;5112589;27;20040;-64
2023/01/21 17:48:18;;;;;;;0.95;0.50;;;;;;;;;;5119434;27;20042;-62
2023/01/21 17:50:46;;;;;;;2.20;0.60;;;;;;;;;;5118842;27;20040;-69
2023/01/21 17:53:21;;;;;;;3.28;0.63;;;;;;;;;;5120605;27;20049;-69
2023/01/21 17:55:55;;;;;;;1.35;0.40;;;;;;;;;;5113288;27;20036;-69
2023/01/21 17:58:31;;;;;;;2.75;0.60;;;;;;;;;;5118096;27;20039;-69
2023/01/21 18:01:02;;;;;;;2.00;0.63;;;;;;;;;;5119433;27;20043;-65
2023/01/21 18:03:28;;;;;;;2.80;1.27;;;;;;;;;;5117199;27;20436;-68
2023/01/21 18:05:55;;;;;;;3.28;0.55;;;;;;;;;;5118868;27;20124;-67
2023/01/21 18:08:23;;;;;;;4.68;0.63;;;;;;;;;;5121604;27;20046;-67
2023/01/21 18:10:50;;;;;;;1.60;0.43;;;;;;;;;;5120665;27;20045;-68
2023/01/21 18:13:18;;;;;;;1.13;0.50;;;;;;;;;;5116869;27;20572;-68
2023/01/21 18:15:47;;;;;;;1.55;0.40;;;;;;;;;;5120393;27;20103;-67
2023/01/21 18:18:18;;;;;;;1.00;0.57;;;;;;;;;;5114206;27;20042;-67
2023/01/21 18:20:45;;;;;;;2.10;0.32;;;;;;;;;;5118219;27;20044;-67
2023/01/21 18:23:12;;;;;;;0.77;0.77;;;;;;;;;;5113342;27;20043;-66
2023/01/21 18:25:39;;;;;;;1.35;0.60;;;;;;;;;;5110371;27;20059;-63
2023/01/21 18:28:14;;;;;;;5.43;1.08;;;;;;;;;;5114239;27;20035;-68
2023/01/21 18:30:41;;;;;;;4.38;0.57;;;;;;;;;;5121230;27;20046;-63
2023/01/21 18:33:09;;;;;;;2.38;1.05;;;;;;;;;;5097871;27;20182;-63
2023/01/21 18:35:35;;;;;;;;;;;;;;;;;;5114401;27;20040;-64
2023/01/21 18:38:02;;;;;;;1.92;0.40;;;;;;;;;;5103876;27;20693;-65
2023/01/21 18:40:29;;;;;;;2.25;0.80;;;;;;;;;;5105036;27;20043;-65
2023/01/21 18:42:56;;;;;;;1.92;0.50;;;;;;;;;;5100925;27;20043;-65
2023/01/21 18:45:26;;;;;;;1.48;0.55;;;;;;;;;;5102625;27;20035;-65
2023/01/21 18:47:53;;;;;;;2.13;0.50;;;;;;;;;;5107030;27;20820;-66
2023/01/21 18:50:24;;;;;;;1.20;0.50;;;;;;;;;;5100753;27;20035;-65
2023/01/21 18:52:51;;;;;;;1.25;0.50;;;;;;;;;;5103212;27;20047;-65
2023/01/21 18:55:19;;;;;;;1.20;0.40;;;;;;;;;;5102178;27;20050;-64
2023/01/21 18:57:45;;;;;;;;;;;;;;;;;;5103452;27;20128;-65
2023/01/21 19:00:16;;;;;;;2.50;0.88;;;;;;;;;;5102480;27;19955;-65
2023/01/21 19:02:43;;;;;;;2.25;0.70;;;;;;;;;;5102336;27;20036;-65
2023/01/21 19:05:10;;;;;;;2.17;0.63;;;;;;;;;;5101413;27;20039;-64
2023/01/21 19:07:36;;;;;;;2.88;0.50;;;;;;;;;;5105852;27;20035;-65
2023/01/21 19:10:03;;;;;;;3.35;0.43;;;;;;;;;;5099423;27;20036;-64
2023/01/21 19:12:30;;;;;;;3.40;1.38;;;;;;;;;;5104689;27;20460;-60
2023/01/21 19:14:56;;;;;;;1.45;0.77;;;;;;;;;;5101725;27;20641;-60
2023/01/21 19:17:27;;;;;;;2.17;0.43;;;;;;;;;;5101914;27;20712;-69
2023/01/21 19:19:54;;;;;;;2.60;0.50;;;;;;;;;;5104437;27;20039;-66
2023/01/21 19:22:21;;;;;;;0.95;0.45;;;;;;;;;;5103926;27;20056;-66
2023/01/21 19:24:48;;;;;;;1.52;0.50;;;;;;;;;;5107816;27;20043;-64
2023/01/21 19:27:16;;;;;;;2.08;0.50;;;;;;;;;;5100010;27;20067;-66
2023/01/21 19:29:42;;;;;;;2.53;0.73;;;;;;;;;;5104190;27;20869;-69
2023/01/21 19:32:13;;;;;;;1.63;0.75;;;;;;;;;;5104430;27;20071;-68
2023/01/21 19:34:40;;;;;;;2.47;0.60;;;;;;;;;;5102219;27;20668;-65
2023/01/21 19:37:13;;;;;;;0.73;0.40;;;;;;;;;;5099986;27;20039;-65
2023/01/21 19:39:40;;;;;;;0.90;0.40;;;;;;;;;;5098137;27;20535;-65
2023/01/21 19:42:11;;;;;;;2.67;0.82;;;;;;;;;;5102203;27;20046;-65
